sensor_id;sensor_type;location;lat;lon;timestamp;P1;durP1;ratioP1;P2;durP2;ratioP2
64210;SDS011;73293;48.538;14.354;2023-12-14T00:01:15;2.30;;;1.10;;
64210;SDS011;73293;48.538;14.354;2023-12-14T00:01:50;2.20;;;1.20;;
64210;SDS011;73293;48.538;14.354;2023-12-14T00:02:24;2.30;;;1.30;;
64210;SDS011;73293;48.538;14.354;2023-12-14T00:02:58;2.90;;;1.50;;
64210;SDS011;73293;48.538;14.354;2023-12-14T00:04:33;2.70;;;1.60;;
64210;SDS011;73293;48.538;14.354;2023-12-14T00:05:07;2.70;;;1.80;;
64210;SDS011;73293;48.538;14.354;2023-12-14T00:05:44;3.10;;;2.10;;
64210;SDS011;73293;48.538;14.354;2023-12-14T00:06:28;3.20;;;2.00;;
64210;SDS011;73293;48.538;14.354;2023-12-14T00:07:02;3.00;;;2.20;;
64210;SDS011;73293;48.538;14.354;2023-12-14T00:08:22;3.20;;;1.90;;
64210;SDS011;73293;48.538;14.354;2023-12-14T00:08:56;4.30;;;2.00;;
64210;SDS011;73293;48.538;14.354;2023-12-14T00:09:30;2.80;;;2.10;;
64210;SDS011;73293;48.538;14.354;2023-12-14T00:10:04;3.50;;;2.20;;
64210;SDS011;73293;48.538;14.354;2023-12-14T00:10:39;3.70;;;1.80;;
64210;SDS011;73293;48.538;14.354;2023-12-14T00:12:02;2.40;;;1.50;;
64210;SDS011;73293;48.538;14.354;2023-12-14T00:12:36;2.10;;;1.30;;
64210;SDS011;73293;48.538;14.354;2023-12-14T00:13:10;2.20;;;1.40;;
64210;SDS011;73293;48.538;14.354;2023-12-14T00:13:44;2.20;;;1.40;;
64210;SDS011;73293;48.538;14.354;2023-12-14T00:14:19;1.50;;;0.90;;
64210;SDS011;73293;48.538;14.354;2023-12-14T00:15:42;3.60;;;1.40;;
64210;SDS011;73293;48.538;14.354;2023-12-14T00:16:18;2.10;;;1.20;;
64210;SDS011;73293;48.538;14.354;2023-12-14T00:16:52;3.30;;;1.00;;
64210;SDS011;73293;48.538;14.354;2023-12-14T00:17:26;2.80;;;1.30;;
64210;SDS011;73293;48.538;14.354;2023-12-14T00:18:03;2.00;;;1.20;;
64210;SDS011;73293;48.538;14.354;2023-12-14T00:19:24;1.90;;;1.10;;
64210;SDS011;73293;48.538;14.354;2023-12-14T00:19:58;2.20;;;1.30;;
64210;SDS011;73293;48.538;14.354;2023-12-14T00:20:32;2.60;;;1.60;;
64210;SDS011;73293;48.538;14.354;2023-12-14T00:21:22;2.30;;;1.40;;
64210;SDS011;73293;48.538;14.354;2023-12-14T00:21:56;2.50;;;1.40;;
64210;SDS011;73293;48.538;14.354;2023-12-14T00:23:16;2.50;;;1.60;;
64210;SDS011;73293;48.538;14.354;2023-12-14T00:23:50;2.50;;;1.20;;
64210;SDS011;73293;48.538;14.354;2023-12-14T00:24:23;2.40;;;1.50;;
64210;SDS011;73293;48.538;14.354;2023-12-14T00:24:58;2.60;;;1.50;;
64210;SDS011;73293;48.538;14.354;2023-12-14T00:25:32;2.50;;;1.70;;
64210;SDS011;73293;48.538;14.354;2023-12-14T00:26:56;2.10;;;1.40;;
64210;SDS011;73293;48.538;14.354;2023-12-14T00:27:31;2.40;;;1.40;;
64210;SDS011;73293;48.538;14.354;2023-12-14T00:28:04;2.40;;;1.40;;
64210;SDS011;73293;48.538;14.354;2023-12-14T00:28:38;2.40;;;1.50;;
64210;SDS011;73293;48.538;14.354;2023-12-14T00:29:15;2.60;;;1.40;;
64210;SDS011;73293;48.538;14.354;2023-12-14T00:30:38;2.10;;;1.30;;
64210;SDS011;73293;48.538;14.354;2023-12-14T00:31:15;2.40;;;1.40;;
64210;SDS011;73293;48.538;14.354;2023-12-14T00:31:48;2.30;;;1.40;;
64210;SDS011;73293;48.538;14.354;2023-12-14T00:32:22;2.50;;;1.60;;
64210;SDS011;73293;48.538;14.354;2023-12-14T00:32:56;2.20;;;1.40;;
64210;SDS011;73293;48.538;14.354;2023-12-14T00:34:24;2.20;;;1.50;;
64210;SDS011;73293;48.538;14.354;2023-12-14T00:34:58;2.30;;;1.50;;
64210;SDS011;73293;48.538;14.354;2023-12-14T00:35:32;2.90;;;1.70;;
64210;SDS011;73293;48.538;14.354;2023-12-14T00:36:07;2.50;;;1.50;;
64210;SDS011;73293;48.538;14.354;2023-12-14T00:36:45;2.70;;;1.70;;
64210;SDS011;73293;48.538;14.354;2023-12-14T00:38:07;2.80;;;1.50;;
64210;SDS011;73293;48.538;14.354;2023-12-14T00:38:41;3.10;;;2.00;;
64210;SDS011;73293;48.538;14.354;2023-12-14T00:39:15;3.50;;;2.30;;
64210;SDS011;73293;48.538;14.354;2023-12-14T00:39:49;3.50;;;2.80;;
64210;SDS011;73293;48.538;14.354;2023-12-14T00:40:22;3.30;;;2.60;;
64210;SDS011;73293;48.538;14.354;2023-12-14T00:41:47;3.40;;;2.60;;
64210;SDS011;73293;48.538;14.354;2023-12-14T00:42:21;3.80;;;2.60;;
64210;SDS011;73293;48.538;14.354;2023-12-14T00:42:55;3.50;;;2.40;;
64210;SDS011;73293;48.538;14.354;2023-12-14T00:43:29;3.60;;;2.60;;
64210;SDS011;73293;48.538;14.354;2023-12-14T00:44:03;4.30;;;3.00;;
64210;SDS011;73293;48.538;14.354;2023-12-14T00:45:27;3.70;;;2.50;;
64210;SDS011;73293;48.538;14.354;2023-12-14T00:46:02;4.20;;;2.70;;
64210;SDS011;73293;48.538;14.354;2023-12-14T00:46:36;4.00;;;2.50;;
64210;SDS011;73293;48.538;14.354;2023-12-14T00:47:11;4.30;;;2.90;;
64210;SDS011;73293;48.538;14.354;2023-12-14T00:47:45;3.80;;;2.80;;
64210;SDS011;73293;48.538;14.354;2023-12-14T00:49:09;3.70;;;2.70;;
64210;SDS011;73293;48.538;14.354;2023-12-14T00:49:43;3.70;;;2.60;;
64210;SDS011;73293;48.538;14.354;2023-12-14T00:50:17;3.90;;;2.40;;
64210;SDS011;73293;48.538;14.354;2023-12-14T00:50:53;4.20;;;2.60;;
64210;SDS011;73293;48.538;14.354;2023-12-14T00:51:27;4.00;;;2.90;;
64210;SDS011;73293;48.538;14.354;2023-12-14T00:52:53;3.20;;;2.60;;
64210;SDS011;73293;48.538;14.354;2023-12-14T00:53:26;3.90;;;2.60;;
64210;SDS011;73293;48.538;14.354;2023-12-14T00:54:00;4.00;;;2.50;;
64210;SDS011;73293;48.538;14.354;2023-12-14T00:54:33;3.90;;;2.40;;
64210;SDS011;73293;48.538;14.354;2023-12-14T00:55:07;3.90;;;2.90;;
64210;SDS011;73293;48.538;14.354;2023-12-14T00:56:27;3.70;;;2.50;;
64210;SDS011;73293;48.538;14.354;2023-12-14T00:57:01;5.60;;;2.80;;
64210;SDS011;73293;48.538;14.354;2023-12-14T00:57:35;3.90;;;3.00;;
64210;SDS011;73293;48.538;14.354;2023-12-14T00:58:09;3.90;;;2.80;;
64210;SDS011;73293;48.538;14.354;2023-12-14T00:58:42;3.80;;;2.90;;
64210;SDS011;73293;48.538;14.354;2023-12-14T01:00:08;3.70;;;2.40;;
64210;SDS011;73293;48.538;14.354;2023-12-14T01:00:43;4.10;;;2.70;;
64210;SDS011;73293;48.538;14.354;2023-12-14T01:01:17;4.20;;;3.30;;
64210;SDS011;73293;48.538;14.354;2023-12-14T01:01:51;3.90;;;3.00;;
64210;SDS011;73293;48.538;14.354;2023-12-14T01:02:25;4.80;;;2.70;;
64210;SDS011;73293;48.538;14.354;2023-12-14T01:03:49;3.90;;;2.70;;
64210;SDS011;73293;48.538;14.354;2023-12-14T01:04:23;4.40;;;3.10;;
64210;SDS011;73293;48.538;14.354;2023-12-14T01:04:57;4.10;;;3.10;;
64210;SDS011;73293;48.538;14.354;2023-12-14T01:05:33;4.20;;;2.70;;
64210;SDS011;73293;48.538;14.354;2023-12-14T01:06:07;3.70;;;3.00;;
64210;SDS011;73293;48.538;14.354;2023-12-14T01:07:29;4.10;;;3.10;;
64210;SDS011;73293;48.538;14.354;2023-12-14T01:08:02;3.40;;;2.50;;
64210;SDS011;73293;48.538;14.354;2023-12-14T01:08:37;4.20;;;2.80;;
64210;SDS011;73293;48.538;14.354;2023-12-14T01:09:12;4.40;;;2.90;;
64210;SDS011;73293;48.538;14.354;2023-12-14T01:09:47;4.30;;;3.00;;
64210;SDS011;73293;48.538;14.354;2023-12-14T01:11:08;4.00;;;3.10;;
64210;SDS011;73293;48.538;14.354;2023-12-14T01:11:43;4.20;;;3.30;;
64210;SDS011;73293;48.538;14.354;2023-12-14T01:12:16;5.80;;;3.80;;
64210;SDS011;73293;48.538;14.354;2023-12-14T01:12:50;4.80;;;3.30;;
64210;SDS011;73293;48.538;14.354;2023-12-14T01:13:24;4.40;;;3.30;;
64210;SDS011;73293;48.538;14.354;2023-12-14T01:14:49;4.60;;;3.30;;
64210;SDS011;73293;48.538;14.354;2023-12-14T01:15:23;5.10;;;3.10;;
64210;SDS011;73293;48.538;14.354;2023-12-14T01:15:58;3.90;;;3.00;;
64210;SDS011;73293;48.538;14.354;2023-12-14T01:16:33;3.90;;;3.00;;
64210;SDS011;73293;48.538;14.354;2023-12-14T01:17:07;3.60;;;2.80;;
64210;SDS011;73293;48.538;14.354;2023-12-14T01:18:29;3.80;;;2.70;;
64210;SDS011;73293;48.538;14.354;2023-12-14T01:19:03;4.50;;;2.90;;
64210;SDS011;73293;48.538;14.354;2023-12-14T01:19:43;4.00;;;2.60;;
64210;SDS011;73293;48.538;14.354;2023-12-14T01:20:28;3.40;;;2.50;;
64210;SDS011;73293;48.538;14.354;2023-12-14T01:21:02;3.70;;;2.50;;
64210;SDS011;73293;48.538;14.354;2023-12-14T01:22:21;4.00;;;2.80;;
64210;SDS011;73293;48.538;14.354;2023-12-14T01:22:55;4.70;;;3.30;;
64210;SDS011;73293;48.538;14.354;2023-12-14T01:23:29;3.70;;;2.80;;
64210;SDS011;73293;48.538;14.354;2023-12-14T01:24:03;5.10;;;3.00;;
64210;SDS011;73293;48.538;14.354;2023-12-14T01:24:36;4.70;;;3.60;;
64210;SDS011;73293;48.538;14.354;2023-12-14T01:26:01;4.10;;;3.00;;
64210;SDS011;73293;48.538;14.354;2023-12-14T01:26:35;4.70;;;3.10;;
64210;SDS011;73293;48.538;14.354;2023-12-14T01:27:08;3.70;;;2.80;;
64210;SDS011;73293;48.538;14.354;2023-12-14T01:27:43;4.20;;;2.70;;
64210;SDS011;73293;48.538;14.354;2023-12-14T01:28:18;4.10;;;2.80;;
64210;SDS011;73293;48.538;14.354;2023-12-14T01:29:41;3.40;;;2.30;;
64210;SDS011;73293;48.538;14.354;2023-12-14T01:30:15;3.70;;;2.60;;
64210;SDS011;73293;48.538;14.354;2023-12-14T01:30:48;3.20;;;2.40;;
64210;SDS011;73293;48.538;14.354;2023-12-14T01:31:25;4.30;;;2.60;;
64210;SDS011;73293;48.538;14.354;2023-12-14T01:32:01;3.50;;;2.70;;
64210;SDS011;73293;48.538;14.354;2023-12-14T01:33:21;3.30;;;2.20;;
64210;SDS011;73293;48.538;14.354;2023-12-14T01:33:56;3.80;;;2.10;;
64210;SDS011;73293;48.538;14.354;2023-12-14T01:34:30;3.20;;;2.30;;
64210;SDS011;73293;48.538;14.354;2023-12-14T01:35:03;3.60;;;2.50;;
64210;SDS011;73293;48.538;14.354;2023-12-14T01:35:37;3.40;;;2.50;;
64210;SDS011;73293;48.538;14.354;2023-12-14T01:37:01;3.90;;;2.20;;
64210;SDS011;73293;48.538;14.354;2023-12-14T01:37:36;3.00;;;2.20;;
64210;SDS011;73293;48.538;14.354;2023-12-14T01:38:17;3.10;;;2.20;;
64210;SDS011;73293;48.538;14.354;2023-12-14T01:38:51;3.10;;;2.30;;
64210;SDS011;73293;48.538;14.354;2023-12-14T01:39:25;3.50;;;2.30;;
64210;SDS011;73293;48.538;14.354;2023-12-14T01:40:54;3.20;;;2.30;;
64210;SDS011;73293;48.538;14.354;2023-12-14T01:41:29;3.80;;;2.40;;
64210;SDS011;73293;48.538;14.354;2023-12-14T01:42:03;3.40;;;2.30;;
64210;SDS011;73293;48.538;14.354;2023-12-14T01:42:39;3.00;;;2.20;;
64210;SDS011;73293;48.538;14.354;2023-12-14T01:44:27;3.20;;;2.40;;
64210;SDS011;73293;48.538;14.354;2023-12-14T01:45:01;3.50;;;2.30;;
64210;SDS011;73293;48.538;14.354;2023-12-14T01:45:34;2.90;;;2.20;;
64210;SDS011;73293;48.538;14.354;2023-12-14T01:46:08;3.20;;;2.30;;
64210;SDS011;73293;48.538;14.354;2023-12-14T01:46:42;3.00;;;2.10;;
64210;SDS011;73293;48.538;14.354;2023-12-14T01:48:02;3.00;;;2.10;;
64210;SDS011;73293;48.538;14.354;2023-12-14T01:48:36;2.70;;;2.00;;
64210;SDS011;73293;48.538;14.354;2023-12-14T01:49:10;3.20;;;2.30;;
64210;SDS011;73293;48.538;14.354;2023-12-14T01:49:45;3.00;;;2.20;;
64210;SDS011;73293;48.538;14.354;2023-12-14T01:50:20;3.00;;;2.20;;
64210;SDS011;73293;48.538;14.354;2023-12-14T01:51:45;3.50;;;2.30;;
64210;SDS011;73293;48.538;14.354;2023-12-14T01:52:20;3.30;;;2.50;;
64210;SDS011;73293;48.538;14.354;2023-12-14T01:52:54;3.40;;;2.30;;
64210;SDS011;73293;48.538;14.354;2023-12-14T01:53:28;3.40;;;2.50;;
64210;SDS011;73293;48.538;14.354;2023-12-14T01:54:01;3.30;;;2.10;;
64210;SDS011;73293;48.538;14.354;2023-12-14T01:55:22;2.70;;;2.10;;
64210;SDS011;73293;48.538;14.354;2023-12-14T01:55:57;3.50;;;2.30;;
64210;SDS011;73293;48.538;14.354;2023-12-14T01:56:30;3.00;;;1.90;;
64210;SDS011;73293;48.538;14.354;2023-12-14T01:57:04;3.70;;;2.10;;
64210;SDS011;73293;48.538;14.354;2023-12-14T01:57:38;3.10;;;2.20;;
64210;SDS011;73293;48.538;14.354;2023-12-14T01:59:03;3.70;;;2.00;;
64210;SDS011;73293;48.538;14.354;2023-12-14T01:59:37;3.60;;;2.20;;
64210;SDS011;73293;48.538;14.354;2023-12-14T02:00:13;3.50;;;2.20;;
64210;SDS011;73293;48.538;14.354;2023-12-14T02:01:17;2.70;;;1.90;;
64210;SDS011;73293;48.538;14.354;2023-12-14T02:03:05;3.90;;;2.00;;
64210;SDS011;73293;48.538;14.354;2023-12-14T02:03:46;3.00;;;2.20;;
64210;SDS011;73293;48.538;14.354;2023-12-14T02:04:21;3.10;;;2.20;;
64210;SDS011;73293;48.538;14.354;2023-12-14T02:04:56;3.00;;;2.10;;
64210;SDS011;73293;48.538;14.354;2023-12-14T02:05:30;3.00;;;2.20;;
64210;SDS011;73293;48.538;14.354;2023-12-14T02:06:50;2.80;;;1.90;;
64210;SDS011;73293;48.538;14.354;2023-12-14T02:07:24;4.30;;;2.40;;
64210;SDS011;73293;48.538;14.354;2023-12-14T02:07:58;3.60;;;2.10;;
64210;SDS011;73293;48.538;14.354;2023-12-14T02:08:32;2.70;;;2.10;;
64210;SDS011;73293;48.538;14.354;2023-12-14T02:10:30;3.10;;;2.10;;
64210;SDS011;73293;48.538;14.354;2023-12-14T02:11:04;3.00;;;1.90;;
64210;SDS011;73293;48.538;14.354;2023-12-14T02:11:38;3.00;;;2.10;;
64210;SDS011;73293;48.538;14.354;2023-12-14T02:12:15;3.50;;;2.40;;
64210;SDS011;73293;48.538;14.354;2023-12-14T02:12:51;2.80;;;2.10;;
64210;SDS011;73293;48.538;14.354;2023-12-14T02:14:10;3.00;;;1.90;;
64210;SDS011;73293;48.538;14.354;2023-12-14T02:14:48;3.40;;;2.20;;
64210;SDS011;73293;48.538;14.354;2023-12-14T02:15:22;3.40;;;2.50;;
64210;SDS011;73293;48.538;14.354;2023-12-14T02:15:56;2.90;;;2.10;;
64210;SDS011;73293;48.538;14.354;2023-12-14T02:16:29;3.40;;;2.50;;
64210;SDS011;73293;48.538;14.354;2023-12-14T02:17:52;3.40;;;2.30;;
64210;SDS011;73293;48.538;14.354;2023-12-14T02:18:26;3.30;;;2.40;;
64210;SDS011;73293;48.538;14.354;2023-12-14T02:19:00;3.30;;;2.50;;
64210;SDS011;73293;48.538;14.354;2023-12-14T02:19:34;3.20;;;2.30;;
64210;SDS011;73293;48.538;14.354;2023-12-14T02:20:08;3.30;;;2.40;;
64210;SDS011;73293;48.538;14.354;2023-12-14T02:21:32;4.40;;;2.50;;
64210;SDS011;73293;48.538;14.354;2023-12-14T02:22:06;3.20;;;2.40;;
64210;SDS011;73293;48.538;14.354;2023-12-14T02:22:55;3.60;;;2.80;;
64210;SDS011;73293;48.538;14.354;2023-12-14T02:23:30;3.00;;;2.30;;
64210;SDS011;73293;48.538;14.354;2023-12-14T02:24:03;3.30;;;2.50;;
64210;SDS011;73293;48.538;14.354;2023-12-14T02:25:24;3.20;;;2.40;;
64210;SDS011;73293;48.538;14.354;2023-12-14T02:26:01;3.40;;;2.10;;
64210;SDS011;73293;48.538;14.354;2023-12-14T02:26:35;2.80;;;2.00;;
64210;SDS011;73293;48.538;14.354;2023-12-14T02:27:09;2.70;;;2.20;;
64210;SDS011;73293;48.538;14.354;2023-12-14T02:27:43;2.70;;;2.00;;
64210;SDS011;73293;48.538;14.354;2023-12-14T02:29:07;2.50;;;1.90;;
64210;SDS011;73293;48.538;14.354;2023-12-14T02:29:41;2.70;;;2.20;;
64210;SDS011;73293;48.538;14.354;2023-12-14T02:30:15;2.90;;;2.20;;
64210;SDS011;73293;48.538;14.354;2023-12-14T02:30:49;2.70;;;2.10;;
64210;SDS011;73293;48.538;14.354;2023-12-14T02:31:23;2.70;;;2.00;;
64210;SDS011;73293;48.538;14.354;2023-12-14T02:32:49;3.20;;;2.10;;
64210;SDS011;73293;48.538;14.354;2023-12-14T02:33:23;2.90;;;2.20;;
64210;SDS011;73293;48.538;14.354;2023-12-14T02:33:57;3.20;;;2.20;;
64210;SDS011;73293;48.538;14.354;2023-12-14T02:34:31;2.90;;;2.00;;
64210;SDS011;73293;48.538;14.354;2023-12-14T02:35:06;3.40;;;2.30;;
64210;SDS011;73293;48.538;14.354;2023-12-14T02:36:25;3.00;;;2.10;;
64210;SDS011;73293;48.538;14.354;2023-12-14T02:36:59;3.00;;;2.20;;
64210;SDS011;73293;48.538;14.354;2023-12-14T02:37:33;2.50;;;2.00;;
64210;SDS011;73293;48.538;14.354;2023-12-14T02:38:10;3.00;;;2.40;;
64210;SDS011;73293;48.538;14.354;2023-12-14T02:38:44;2.80;;;2.10;;
64210;SDS011;73293;48.538;14.354;2023-12-14T02:40:09;2.90;;;2.10;;
64210;SDS011;73293;48.538;14.354;2023-12-14T02:40:45;3.40;;;2.20;;
64210;SDS011;73293;48.538;14.354;2023-12-14T02:41:19;3.20;;;2.10;;
64210;SDS011;73293;48.538;14.354;2023-12-14T02:41:53;3.20;;;2.40;;
64210;SDS011;73293;48.538;14.354;2023-12-14T02:42:26;3.30;;;2.30;;
64210;SDS011;73293;48.538;14.354;2023-12-14T02:43:47;3.10;;;2.40;;
64210;SDS011;73293;48.538;14.354;2023-12-14T02:44:21;3.70;;;2.50;;
64210;SDS011;73293;48.538;14.354;2023-12-14T02:44:55;3.40;;;2.60;;
64210;SDS011;73293;48.538;14.354;2023-12-14T02:45:29;3.20;;;2.50;;
64210;SDS011;73293;48.538;14.354;2023-12-14T02:46:03;3.60;;;2.20;;
64210;SDS011;73293;48.538;14.354;2023-12-14T02:47:26;3.20;;;2.30;;
64210;SDS011;73293;48.538;14.354;2023-12-14T02:48:00;2.90;;;2.40;;
64210;SDS011;73293;48.538;14.354;2023-12-14T02:48:34;3.50;;;2.70;;
64210;SDS011;73293;48.538;14.354;2023-12-14T02:49:08;3.10;;;2.20;;
64210;SDS011;73293;48.538;14.354;2023-12-14T02:49:43;3.40;;;2.20;;
64210;SDS011;73293;48.538;14.354;2023-12-14T02:51:07;3.50;;;2.30;;
64210;SDS011;73293;48.538;14.354;2023-12-14T02:51:48;3.20;;;2.30;;
64210;SDS011;73293;48.538;14.354;2023-12-14T02:52:22;4.10;;;2.40;;
64210;SDS011;73293;48.538;14.354;2023-12-14T02:52:56;4.10;;;2.40;;
64210;SDS011;73293;48.538;14.354;2023-12-14T02:53:30;3.10;;;2.20;;
64210;SDS011;73293;48.538;14.354;2023-12-14T02:54:55;2.90;;;2.20;;
64210;SDS011;73293;48.538;14.354;2023-12-14T02:55:28;3.90;;;2.30;;
64210;SDS011;73293;48.538;14.354;2023-12-14T02:56:02;2.90;;;2.30;;
64210;SDS011;73293;48.538;14.354;2023-12-14T02:56:37;2.90;;;2.20;;
64210;SDS011;73293;48.538;14.354;2023-12-14T02:57:10;3.20;;;2.40;;
64210;SDS011;73293;48.538;14.354;2023-12-14T02:58:34;3.20;;;2.40;;
64210;SDS011;73293;48.538;14.354;2023-12-14T02:59:08;3.40;;;2.50;;
64210;SDS011;73293;48.538;14.354;2023-12-14T02:59:42;3.30;;;2.60;;
64210;SDS011;73293;48.538;14.354;2023-12-14T03:00:16;3.10;;;2.30;;
64210;SDS011;73293;48.538;14.354;2023-12-14T03:07:07;3.40;;;2.50;;
64210;SDS011;73293;48.538;14.354;2023-12-14T03:07:42;4.10;;;3.00;;
64210;SDS011;73293;48.538;14.354;2023-12-14T03:08:17;4.10;;;3.10;;
64210;SDS011;73293;48.538;14.354;2023-12-14T03:08:52;5.40;;;3.30;;
64210;SDS011;73293;48.538;14.354;2023-12-14T03:09:26;3.90;;;3.10;;
64210;SDS011;73293;48.538;14.354;2023-12-14T03:10:51;4.70;;;3.40;;
64210;SDS011;73293;48.538;14.354;2023-12-14T03:11:25;4.40;;;3.40;;
64210;SDS011;73293;48.538;14.354;2023-12-14T03:11:59;4.50;;;3.20;;
64210;SDS011;73293;48.538;14.354;2023-12-14T03:12:35;3.80;;;2.70;;
64210;SDS011;73293;48.538;14.354;2023-12-14T03:13:09;3.70;;;3.00;;
64210;SDS011;73293;48.538;14.354;2023-12-14T03:14:31;3.60;;;2.70;;
64210;SDS011;73293;48.538;14.354;2023-12-14T03:15:07;5.10;;;3.10;;
64210;SDS011;73293;48.538;14.354;2023-12-14T03:15:42;3.70;;;3.00;;
64210;SDS011;73293;48.538;14.354;2023-12-14T03:16:17;6.40;;;4.80;;
64210;SDS011;73293;48.538;14.354;2023-12-14T03:16:55;4.90;;;3.00;;
64210;SDS011;73293;48.538;14.354;2023-12-14T03:18:18;7.90;;;6.10;;
64210;SDS011;73293;48.538;14.354;2023-12-14T03:18:52;7.30;;;5.50;;
64210;SDS011;73293;48.538;14.354;2023-12-14T03:19:27;5.20;;;4.30;;
64210;SDS011;73293;48.538;14.354;2023-12-14T03:20:01;5.90;;;4.70;;
64210;SDS011;73293;48.538;14.354;2023-12-14T03:21:51;4.90;;;4.10;;
64210;SDS011;73293;48.538;14.354;2023-12-14T03:22:25;4.90;;;3.60;;
64210;SDS011;73293;48.538;14.354;2023-12-14T03:22:59;4.60;;;3.80;;
64210;SDS011;73293;48.538;14.354;2023-12-14T03:23:33;4.50;;;3.80;;
64210;SDS011;73293;48.538;14.354;2023-12-14T03:24:12;6.70;;;4.30;;
64210;SDS011;73293;48.538;14.354;2023-12-14T03:25:34;4.60;;;3.80;;
64210;SDS011;73293;48.538;14.354;2023-12-14T03:26:08;4.60;;;3.80;;
64210;SDS011;73293;48.538;14.354;2023-12-14T03:26:43;5.80;;;4.00;;
64210;SDS011;73293;48.538;14.354;2023-12-14T03:27:16;4.70;;;4.00;;
64210;SDS011;73293;48.538;14.354;2023-12-14T03:27:50;5.00;;;4.30;;
64210;SDS011;73293;48.538;14.354;2023-12-14T03:29:13;4.90;;;4.10;;
64210;SDS011;73293;48.538;14.354;2023-12-14T03:29:47;4.40;;;3.80;;
64210;SDS011;73293;48.538;14.354;2023-12-14T03:30:21;4.60;;;3.80;;
64210;SDS011;73293;48.538;14.354;2023-12-14T03:31:00;4.80;;;3.80;;
64210;SDS011;73293;48.538;14.354;2023-12-14T03:31:34;4.40;;;3.60;;
64210;SDS011;73293;48.538;14.354;2023-12-14T03:32:56;5.10;;;3.80;;
64210;SDS011;73293;48.538;14.354;2023-12-14T03:33:30;4.70;;;3.70;;
64210;SDS011;73293;48.538;14.354;2023-12-14T03:34:04;4.60;;;3.80;;
64210;SDS011;73293;48.538;14.354;2023-12-14T03:34:38;5.00;;;3.60;;
64210;SDS011;73293;48.538;14.354;2023-12-14T03:35:12;4.60;;;3.60;;
64210;SDS011;73293;48.538;14.354;2023-12-14T03:36:35;5.70;;;3.50;;
64210;SDS011;73293;48.538;14.354;2023-12-14T03:37:10;4.30;;;3.40;;
64210;SDS011;73293;48.538;14.354;2023-12-14T03:37:44;4.10;;;3.10;;
64210;SDS011;73293;48.538;14.354;2023-12-14T03:38:18;3.90;;;3.30;;
64210;SDS011;73293;48.538;14.354;2023-12-14T03:38:54;3.90;;;3.30;;
64210;SDS011;73293;48.538;14.354;2023-12-14T03:40:15;3.80;;;2.90;;
64210;SDS011;73293;48.538;14.354;2023-12-14T03:40:50;4.30;;;3.20;;
64210;SDS011;73293;48.538;14.354;2023-12-14T03:41:24;3.70;;;3.10;;
64210;SDS011;73293;48.538;14.354;2023-12-14T03:42:00;3.80;;;3.10;;
64210;SDS011;73293;48.538;14.354;2023-12-14T03:42:36;4.00;;;3.20;;
64210;SDS011;73293;48.538;14.354;2023-12-14T03:43:56;4.20;;;3.30;;
64210;SDS011;73293;48.538;14.354;2023-12-14T03:44:30;4.60;;;3.80;;
64210;SDS011;73293;48.538;14.354;2023-12-14T03:45:04;4.30;;;3.50;;
64210;SDS011;73293;48.538;14.354;2023-12-14T03:45:38;4.00;;;3.30;;
64210;SDS011;73293;48.538;14.354;2023-12-14T03:46:14;4.10;;;3.20;;
64210;SDS011;73293;48.538;14.354;2023-12-14T03:47:35;3.70;;;2.90;;
64210;SDS011;73293;48.538;14.354;2023-12-14T03:48:09;4.30;;;3.30;;
64210;SDS011;73293;48.538;14.354;2023-12-14T03:48:42;4.00;;;3.20;;
64210;SDS011;73293;48.538;14.354;2023-12-14T03:49:16;4.20;;;3.40;;
64210;SDS011;73293;48.538;14.354;2023-12-14T03:49:53;4.10;;;3.30;;
64210;SDS011;73293;48.538;14.354;2023-12-14T03:51:17;3.90;;;3.20;;
64210;SDS011;73293;48.538;14.354;2023-12-14T03:51:54;3.80;;;3.00;;
64210;SDS011;73293;48.538;14.354;2023-12-14T03:52:29;4.20;;;3.30;;
64210;SDS011;73293;48.538;14.354;2023-12-14T03:53:05;4.60;;;3.60;;
64210;SDS011;73293;48.538;14.354;2023-12-14T03:53:40;4.00;;;3.20;;
64210;SDS011;73293;48.538;14.354;2023-12-14T03:54:58;4.90;;;3.20;;
64210;SDS011;73293;48.538;14.354;2023-12-14T03:55:31;5.40;;;3.50;;
64210;SDS011;73293;48.538;14.354;2023-12-14T03:56:06;4.30;;;3.40;;
64210;SDS011;73293;48.538;14.354;2023-12-14T03:56:40;3.90;;;3.20;;
64210;SDS011;73293;48.538;14.354;2023-12-14T03:57:13;4.30;;;3.20;;
64210;SDS011;73293;48.538;14.354;2023-12-14T03:58:40;4.60;;;3.60;;
64210;SDS011;73293;48.538;14.354;2023-12-14T03:59:14;4.60;;;3.70;;
64210;SDS011;73293;48.538;14.354;2023-12-14T03:59:47;4.30;;;3.60;;
64210;SDS011;73293;48.538;14.354;2023-12-14T04:00:21;4.10;;;3.40;;
64210;SDS011;73293;48.538;14.354;2023-12-14T04:00:55;4.30;;;3.50;;
64210;SDS011;73293;48.538;14.354;2023-12-14T04:02:17;4.40;;;3.40;;
64210;SDS011;73293;48.538;14.354;2023-12-14T04:02:53;5.10;;;3.10;;
64210;SDS011;73293;48.538;14.354;2023-12-14T04:03:27;4.30;;;3.40;;
64210;SDS011;73293;48.538;14.354;2023-12-14T04:04:01;4.80;;;3.40;;
64210;SDS011;73293;48.538;14.354;2023-12-14T04:04:35;4.00;;;3.00;;
64210;SDS011;73293;48.538;14.354;2023-12-14T04:06:01;3.60;;;2.70;;
64210;SDS011;73293;48.538;14.354;2023-12-14T04:06:36;3.80;;;2.60;;
64210;SDS011;73293;48.538;14.354;2023-12-14T04:07:09;4.40;;;3.50;;
64210;SDS011;73293;48.538;14.354;2023-12-14T04:07:43;3.90;;;3.10;;
64210;SDS011;73293;48.538;14.354;2023-12-14T04:08:18;3.90;;;3.40;;
64210;SDS011;73293;48.538;14.354;2023-12-14T04:09:39;3.80;;;3.00;;
64210;SDS011;73293;48.538;14.354;2023-12-14T04:10:14;4.50;;;3.30;;
64210;SDS011;73293;48.538;14.354;2023-12-14T04:10:49;4.20;;;3.20;;
64210;SDS011;73293;48.538;14.354;2023-12-14T04:11:23;3.90;;;3.10;;
64210;SDS011;73293;48.538;14.354;2023-12-14T04:11:59;4.00;;;3.40;;
64210;SDS011;73293;48.538;14.354;2023-12-14T04:13:22;4.20;;;3.30;;
64210;SDS011;73293;48.538;14.354;2023-12-14T04:13:56;3.10;;;2.10;;
64210;SDS011;73293;48.538;14.354;2023-12-14T04:14:30;3.30;;;2.60;;
64210;SDS011;73293;48.538;14.354;2023-12-14T04:15:06;3.70;;;2.90;;
64210;SDS011;73293;48.538;14.354;2023-12-14T04:15:41;3.50;;;2.90;;
64210;SDS011;73293;48.538;14.354;2023-12-14T04:17:06;3.30;;;2.50;;
64210;SDS011;73293;48.538;14.354;2023-12-14T04:17:41;3.70;;;2.80;;
64210;SDS011;73293;48.538;14.354;2023-12-14T04:18:15;3.30;;;2.40;;
64210;SDS011;73293;48.538;14.354;2023-12-14T04:18:51;3.80;;;2.50;;
64210;SDS011;73293;48.538;14.354;2023-12-14T04:19:24;3.20;;;2.50;;
64210;SDS011;73293;48.538;14.354;2023-12-14T04:20:49;3.20;;;2.60;;
64210;SDS011;73293;48.538;14.354;2023-12-14T04:21:22;2.90;;;2.10;;
64210;SDS011;73293;48.538;14.354;2023-12-14T04:22:02;3.10;;;2.30;;
64210;SDS011;73293;48.538;14.354;2023-12-14T04:22:37;3.20;;;2.60;;
64210;SDS011;73293;48.538;14.354;2023-12-14T04:24:24;3.20;;;2.20;;
64210;SDS011;73293;48.538;14.354;2023-12-14T04:24:57;3.30;;;2.70;;
64210;SDS011;73293;48.538;14.354;2023-12-14T04:25:32;3.30;;;2.40;;
64210;SDS011;73293;48.538;14.354;2023-12-14T04:26:06;3.20;;;2.20;;
64210;SDS011;73293;48.538;14.354;2023-12-14T04:26:43;3.30;;;2.20;;
64210;SDS011;73293;48.538;14.354;2023-12-14T04:28:09;3.00;;;2.20;;
64210;SDS011;73293;48.538;14.354;2023-12-14T04:28:42;3.60;;;2.50;;
64210;SDS011;73293;48.538;14.354;2023-12-14T04:29:18;2.70;;;1.90;;
64210;SDS011;73293;48.538;14.354;2023-12-14T04:29:54;2.80;;;2.10;;
64210;SDS011;73293;48.538;14.354;2023-12-14T04:30:28;3.90;;;2.20;;
64210;SDS011;73293;48.538;14.354;2023-12-14T04:31:46;2.80;;;2.00;;
64210;SDS011;73293;48.538;14.354;2023-12-14T04:32:20;2.80;;;2.10;;
64210;SDS011;73293;48.538;14.354;2023-12-14T04:32:55;2.60;;;1.90;;